Hauptseite
METAR-TAF:

METAR-TAF

Flughäfen :

Flughafen Kassel-Calden

Kassel, Deutschland

Breite: 51-24N, Länge: 009-23E, Höhe: 277 m

Beobachtung

Neuester Wetterbericht von vor 4 Stunden und 31 Minuten, um 19:50 UTC
Wind 5 kt aus Süd/Südost
Temperatur 3°C
Luftfeuchtigkeit 100%
Luftdruck 1002 hPa
Sichtweite 10 km oder mehr
Leicht bewölkt in der Höhe von 1500 ft
Durchbrochene Bewölkung in der Höhe von 3000 ft

METAR: EDVK 121950Z 15005KT 9999 FEW015 BKN030 03/03 Q1002

Zeit: 01:21 (00:21 UTC)

Prognose

Neuester Wetterbericht von vor 4 Stunden und 21 Minuten, um 20:00 UTC
Gültige Prognose vom 12 um 21 UTC bis 13 um 03 UTC
Wind 7 kt aus Süd
Sichtweite 10 km oder mehr
Durchbrochene Bewölkung in der Höhe von 3000 ft

TAF: EDVK 122000Z 1221/1303 17007KT 9999 BKN030

Wetterbeobachtungen und Prognosen von mehr als 4000 Flughäfen (METAR und TAF Bericht).

Die verfügbaren Stationen werden durch gelbe und rote Markierungen auf der Karte dargestellt.

Führen Sie die Maus auf sie, um den Namen der Station zu sehen.

Darauf klicken, um die Beobachtung von Wetterbeobachtungen und Prognosen zu sehen.

Um die Karte zu ändern : klicken Sie auf den grünen Tasten mit einem schwarzen Kreuz Zum Vergrößern, auf den grünen Button mit einem Gedankenstrich zu verkleinern, oder auf die grünen Pfeile für benachbarte Karten.


METAR-TAF: